This is the latest recevied weather packets stored in our database for station/object N3WMC. If no packets are shown the sender has not sent any weather packets the latest 10 day(s).
| Time | Temp. | Humidity | Pressure | Rain* | Wind** | Luminosity | Snow |
|---|---|---|---|---|---|---|---|
| 1777734896 | 4.44° C | 90% | 1016.3 hPa | 0 mm | - | 110 W/m² | - |
| 1777734593 | 4.44° C | 91% | 1016.5 hPa | 0 mm | - | 77 W/m² | - |
| 1777734290 | 4.44° C | 91% | 1016.1 hPa | 0 mm | - | 68 W/m² | - |
| 1777733986 | 4.44° C | 90% | 1016.1 hPa | 0 mm | - | 61 W/m² | - |
| 1777733683 | 5° C | 89% | 1016.3 hPa | 0 mm | - | 63 W/m² | - |
| 1777733379 | 5.56° C | 87% | 1016.1 hPa | 0 mm | - | 98 W/m² | - |
| 1777733076 | 6.11° C | 85% | 1016.3 hPa | 0 mm | - | 77 W/m² | - |
| 1777732772 | 6.67° C | 85% | 1015.9 hPa | 0 mm | - | 81 W/m² | - |
| 1777732470 | 6.67° C | 85% | 1015.9 hPa | 0 mm | - | 171 W/m² | - |
| 1777732167 | 6.11° C | 88% | 1016.1 hPa | 0 mm | - | 377 W/m² | - |
| 1777731864 | 5° C | 91% | 1016 hPa | 0 mm | - | 289 W/m² | - |
| 1777731561 | 5° C | 93% | 1016.3 hPa | 0 mm | - | 182 W/m² | - |
| 1777731258 | 5° C | 94% | 1016 hPa | 0 mm | - | 171 W/m² | - |
| 1777730956 | 5° C | 94% | 1016.1 hPa | 0 mm | - | 145 W/m² | - |
| 1777730655 | 4.44° C | 95% | 1016.1 hPa | 0 mm | - | 116 W/m² | - |
| 1777730350 | 4.44° C | 96% | 1016.1 hPa | 0 mm | - | 90 W/m² | - |
| 1777730047 | 4.44° C | 97% | 1016.4 hPa | 0 mm | - | 76 W/m² | - |
| 1777729742 | 4.44° C | 98% | 1016.3 hPa | 0 mm | - | 126 W/m² | - |
| 1777729440 | 4.44° C | 98% | 1016.3 hPa | 0 mm | - | 242 W/m² | - |
| 1777729135 | 3.89° C | 98% | 1016 hPa | 0 mm | - | 172 W/m² | - |
| 1777728833 | 3.89° C | 99% | 1016.3 hPa | 0 mm | - | 129 W/m² | - |
| 1777728530 | 3.89° C | 99% | 1016.5 hPa | 0 mm | - | 85 W/m² | - |
| 1777728227 | 3.89° C | 99% | 1016.4 hPa | 0 mm | - | 79 W/m² | - |
| 1777727924 | 3.33° C | 99% | 1016.4 hPa | 0 mm | - | 27 W/m² | - |
| 1777727621 | 3.33° C | 99% | 1016 hPa | 0 mm | - | 52 W/m² | - |
* Rain latest hour (hover to see other rain measurements)
** Current wind speed in m/s (hover to see current wind gust speed)